createdAt,value
2023-02-14T00:00:50.742Z,101689.13
2023-02-14T00:03:17.725Z,101692.45
2023-02-14T00:05:44.675Z,101693.85
2023-02-14T00:08:11.732Z,101703.41
2023-02-14T00:10:38.681Z,101697.02
2023-02-14T00:13:05.525Z,101695.25
2023-02-14T00:15:32.485Z,101694.87
2023-02-14T00:18:00.141Z,101700.03
2023-02-14T00:20:28.426Z,101698.45
2023-02-14T00:22:55.784Z,101694.58
2023-02-14T00:25:23.257Z,101702.01
2023-02-14T00:27:50.815Z,101705.15
2023-02-14T00:30:17.842Z,101697.91
2023-02-14T00:32:44.819Z,101702.67
2023-02-14T00:35:12.482Z,101702.69
2023-02-14T00:37:41.384Z,101701.03
2023-02-14T00:40:09.561Z,101703.53
2023-02-14T00:42:36.527Z,101706.61
2023-02-14T00:45:03.978Z,101698.30
2023-02-14T00:47:30.927Z,101696.72
2023-02-14T00:50:02.999Z,101706.75
2023-02-14T00:52:31.506Z,101709.02
2023-02-14T00:54:58.901Z,101710.61
2023-02-14T00:57:25.898Z,101703.67
2023-02-14T00:59:52.839Z,101711.11
2023-02-14T01:02:20.967Z,101720.28
2023-02-14T01:04:47.990Z,101726.03
2023-02-14T01:07:15.031Z,101721.95
2023-02-14T01:09:42.398Z,101729.55
2023-02-14T01:12:09.362Z,101729.77
2023-02-14T01:14:36.288Z,101721.36
2023-02-14T01:17:03.225Z,101716.09
2023-02-14T01:19:30.186Z,101712.30
2023-02-14T01:21:57.133Z,101714.29
2023-02-14T01:24:25.312Z,101714.89
2023-02-14T01:26:52.261Z,101717.44
2023-02-14T01:29:19.208Z,101718.18
2023-02-14T01:31:48.655Z,101721.21
2023-02-14T01:34:15.577Z,101719.64
2023-02-14T01:36:42.634Z,101727.88
2023-02-14T01:39:15.404Z,101732.59
2023-02-14T01:41:50.273Z,101728.53
2023-02-14T01:44:17.083Z,101724.79
2023-02-14T01:46:46.184Z,101724.40
2023-02-14T01:49:20.912Z,101729.21
2023-02-14T01:51:56.984Z,101724.81
2023-02-14T01:54:27.546Z,101718.17
2023-02-14T01:56:58.868Z,101725.66
2023-02-14T01:59:32.663Z,101726.03
2023-02-14T02:01:59.924Z,101726.88
2023-02-14T02:04:32.807Z,101728.94
2023-02-14T02:07:03.446Z,101739.73
2023-02-14T02:09:34.797Z,101733.54
2023-02-14T02:12:03.172Z,101728.92
2023-02-14T02:14:31.165Z,101722.67
2023-02-14T02:17:13.482Z,101725.08
2023-02-14T02:20:18.573Z,101723.94
2023-02-14T02:23:23.491Z,101731.19
2023-02-14T02:26:02.540Z,101734.36
2023-02-14T02:28:49.686Z,101732.20
2023-02-14T02:31:38.128Z,101731.66
2023-02-14T02:34:43.389Z,101731.27
2023-02-14T02:37:19.263Z,101732.08
2023-02-14T02:40:08.383Z,101732.69
2023-02-14T02:42:55.355Z,101728.94
2023-02-14T02:46:03.231Z,101726.20
2023-02-14T02:48:43.335Z,101730.63
2023-02-14T02:51:37.851Z,101737.09
2023-02-14T02:54:14.286Z,101738.68
2023-02-14T02:56:56.191Z,101741.96
2023-02-14T02:59:31.377Z,101743.10
2023-02-14T03:02:19.559Z,101740.44
2023-02-14T03:04:54.992Z,101742.85
2023-02-14T03:07:39.897Z,101746.55
2023-02-14T03:10:15.720Z,101744.36
2023-02-14T03:13:05.654Z,101745.17
2023-02-14T03:19:10.690Z,101760.86
2023-02-14T03:21:49.161Z,101756.52
2023-02-14T03:24:34.694Z,101748.32
2023-02-14T03:27:21.376Z,101754.87
2023-02-14T03:29:48.389Z,101755.52
2023-02-14T03:32:42.169Z,101751.95
2023-02-14T03:35:26.929Z,101746.94
2023-02-14T03:38:14.306Z,101756.04
2023-02-14T03:41:04.394Z,101755.41
2023-02-14T03:43:37.140Z,101751.06
2023-02-14T03:46:11.952Z,101762.38
2023-02-14T03:48:40.818Z,101759.00
2023-02-14T03:51:11.054Z,101750.91
2023-02-14T03:53:43.927Z,101753.81
2023-02-14T03:56:17.644Z,101757.55
2023-02-14T03:58:49.863Z,101755.75
2023-02-14T04:01:32.541Z,101752.30
2023-02-14T04:04:00.796Z,101752.06
2023-02-14T04:06:27.745Z,101767.04
2023-02-14T04:08:55.021Z,101764.35
2023-02-14T04:11:24.307Z,101768.48
2023-02-14T04:13:51.694Z,101780.18
2023-02-14T04:16:18.604Z,101779.92
2023-02-14T04:19:04.096Z,101778.16
2023-02-14T04:21:30.916Z,101782.56
2023-02-14T04:23:57.695Z,101783.39
2023-02-14T04:26:24.574Z,101785.61
2023-02-14T04:28:51.415Z,101782.23
2023-02-14T04:31:18.365Z,101788.14
2023-02-14T04:33:46.185Z,101788.03
2023-02-14T04:36:13.036Z,101780.91
2023-02-14T04:38:39.963Z,101783.42
2023-02-14T04:41:06.860Z,101794.48
2023-02-14T04:43:33.642Z,101795.34
2023-02-14T04:46:00.421Z,101791.32
2023-02-14T04:48:27.348Z,101793.21
2023-02-14T04:50:55.314Z,101795.89
2023-02-14T04:53:22.477Z,101793.06
2023-02-14T04:55:50.512Z,101792.56
2023-02-14T04:58:17.915Z,101805.84
2023-02-14T05:00:45.072Z,101799.98
2023-02-14T05:03:12.033Z,101795.55
2023-02-14T05:05:38.889Z,101799.92
2023-02-14T05:08:05.857Z,101799.33
2023-02-14T05:10:32.669Z,101804.80
2023-02-14T05:13:01.271Z,101809.48
2023-02-14T05:15:28.088Z,101807.48
2023-02-14T05:17:54.964Z,101807.13
2023-02-14T05:20:21.770Z,101814.67
2023-02-14T05:22:48.597Z,101817.86
2023-02-14T05:25:15.434Z,101820.85
2023-02-14T05:27:42.275Z,101820.56
2023-02-14T05:30:10.102Z,101816.44
2023-02-14T05:32:37.074Z,101811.17
2023-02-14T05:35:04.536Z,101812.09
2023-02-14T05:37:31.891Z,101810.30
2023-02-14T05:39:58.724Z,101812.72
2023-02-14T05:42:25.595Z,101816.05
2023-02-14T05:44:52.417Z,101810.77
2023-02-14T05:47:19.266Z,101811.82
2023-02-14T05:49:46.099Z,101818.83
2023-02-14T05:52:12.983Z,101816.55
2023-02-14T05:54:39.982Z,101808.71
2023-02-14T05:57:06.938Z,101810.15
2023-02-14T05:59:33.768Z,101817.66
2023-02-14T06:02:00.639Z,101823.10
2023-02-14T06:04:27.458Z,101829.23
2023-02-14T06:06:54.434Z,101824.36
2023-02-14T06:09:21.298Z,101821.83
2023-02-14T06:11:48.136Z,101826.98
2023-02-14T06:14:14.940Z,101831.96
2023-02-14T06:16:41.909Z,101832.50
2023-02-14T06:19:08.820Z,101839.23
2023-02-14T06:21:36.041Z,101844.34
2023-02-14T06:24:03.121Z,101839.23
2023-02-14T06:26:29.967Z,101841.59
2023-02-14T06:28:58.684Z,101841.25
2023-02-14T06:31:26.144Z,101843.14
2023-02-14T06:33:54.003Z,101844.09
2023-02-14T06:36:21.899Z,101847.40
2023-02-14T06:38:49.178Z,101846.83
2023-02-14T06:41:19.914Z,101849.94
2023-02-14T06:43:50.770Z,101853.15
2023-02-14T06:46:18.886Z,101848.95
2023-02-14T06:48:45.947Z,101853.58
2023-02-14T06:51:13.081Z,101862.66
2023-02-14T06:53:40.404Z,101856.30
2023-02-14T06:56:07.632Z,101860.17
2023-02-14T06:58:34.727Z,101868.05
2023-02-14T07:01:02.081Z,101864.20
2023-02-14T07:03:29.315Z,101858.55
2023-02-14T07:05:58.145Z,101855.01
2023-02-14T07:08:26.307Z,101863.45
2023-02-14T07:10:59.479Z,101868.89
2023-02-14T07:13:26.681Z,101868.15
2023-02-14T07:15:54.212Z,101862.58
2023-02-14T07:18:22.621Z,101868.48
2023-02-14T07:20:50.499Z,101871.91
2023-02-14T07:23:17.515Z,101876.40
2023-02-14T07:25:44.383Z,101883.84
2023-02-14T07:28:11.361Z,101887.48
2023-02-14T07:30:38.292Z,101889.92
2023-02-14T07:33:05.468Z,101892.39
2023-02-14T07:35:35.281Z,101888.19
2023-02-14T07:38:02.223Z,101894.92
2023-02-14T07:40:30.096Z,101903.24
2023-02-14T07:42:58.564Z,101907.16
2023-02-14T07:45:25.931Z,101904.14
2023-02-14T07:47:55.280Z,101906.27
2023-02-14T07:50:23.429Z,101903.94
2023-02-14T07:52:50.674Z,101908.31
2023-02-14T07:55:19.608Z,101905.94
2023-02-14T07:57:49.783Z,101902.73
2023-02-14T08:00:17.325Z,101905.24
2023-02-14T08:02:44.585Z,101908.45
2023-02-14T08:05:11.694Z,101911.32
2023-02-14T08:07:38.804Z,101912.89
2023-02-14T08:10:06.461Z,101916.89
2023-02-14T08:12:52.055Z,101917.35
2023-02-14T08:15:37.747Z,101915.95
2023-02-14T08:18:04.699Z,101915.99
2023-02-14T08:20:31.793Z,101912.02
2023-02-14T08:22:58.772Z,101914.52
2023-02-14T08:25:25.663Z,101913.11
2023-02-14T08:27:52.465Z,101911.58
2023-02-14T08:30:19.389Z,101906.42
2023-02-14T08:32:46.580Z,101917.54
2023-02-14T08:35:13.610Z,101925.82
2023-02-14T08:37:40.528Z,101928.31
2023-02-14T08:40:08.014Z,101926.79
2023-02-14T08:42:37.822Z,101929.26
2023-02-14T08:45:05.182Z,101926.14
2023-02-14T08:47:35.997Z,101925.65
2023-02-14T08:50:04.027Z,101926.35
2023-02-14T08:52:31.145Z,101931.95
2023-02-14T08:54:58.130Z,101933.15
2023-02-14T08:57:25.127Z,101933.26
2023-02-14T08:59:51.980Z,101930.06
2023-02-14T09:02:19.102Z,101928.12
2023-02-14T09:04:46.650Z,101927.24
2023-02-14T09:07:13.915Z,101925.63
2023-02-14T09:09:41.002Z,101939.76
2023-02-14T09:12:10.081Z,101937.20
2023-02-14T09:14:44.147Z,101932.30
2023-02-14T09:17:12.772Z,101932.51
2023-02-14T09:19:39.837Z,101931.25
2023-02-14T09:22:08.553Z,101932.63
2023-02-14T09:24:37.773Z,101934.64
2023-02-14T09:27:05.245Z,101932.52
2023-02-14T09:29:32.625Z,101935.29
2023-02-14T09:32:01.440Z,101939.20
2023-02-14T09:34:48.807Z,101944.85
2023-02-14T09:37:15.808Z,101946.13
2023-02-14T09:39:42.856Z,101946.17
2023-02-14T09:42:48.026Z,101942.01
2023-02-14T09:45:22.660Z,101935.55
2023-02-14T09:47:56.264Z,101939.10
2023-02-14T09:50:31.862Z,101942.22
2023-02-14T09:53:06.608Z,101939.68
2023-02-14T09:55:45.112Z,101939.42
2023-02-14T09:58:34.887Z,101937.85
2023-02-14T10:01:10.938Z,101932.30
2023-02-14T10:04:04.968Z,101936.08
2023-02-14T10:06:40.945Z,101940.54
2023-02-14T10:09:26.753Z,101937.12
2023-02-14T10:11:55.086Z,101932.43
2023-02-14T10:14:26.529Z,101925.77
2023-02-14T10:17:07.357Z,101931.33
2023-02-14T10:19:42.979Z,101936.17
2023-02-14T10:22:15.343Z,101936.65
2023-02-14T10:25:08.700Z,101932.20
2023-02-14T10:27:44.154Z,101934.39
2023-02-14T10:30:18.931Z,101937.17
2023-02-14T10:33:19.723Z,101938.80
2023-02-14T10:35:52.814Z,101939.57
2023-02-14T10:38:41.239Z,101944.06
2023-02-14T10:41:36.473Z,101940.27
2023-02-14T10:44:31.200Z,101943.89
2023-02-14T10:47:07.396Z,101942.71
2023-02-14T10:49:40.216Z,101942.07
2023-02-14T10:52:13.241Z,101940.33
2023-02-14T10:54:44.442Z,101939.27
2023-02-14T10:57:21.509Z,101930.39
2023-02-14T11:00:07.663Z,101938.95
2023-02-14T11:02:37.959Z,101937.55
2023-02-14T11:05:06.377Z,101937.87
2023-02-14T11:07:33.706Z,101931.42
2023-02-14T11:10:01.764Z,101931.12
2023-02-14T11:12:41.876Z,101936.57
2023-02-14T11:15:22.717Z,101941.07
2023-02-14T11:17:50.314Z,101942.13
2023-02-14T11:20:32.205Z,101939.08
2023-02-14T11:22:59.312Z,101934.29
2023-02-14T11:25:30.092Z,101935.73
2023-02-14T11:28:08.341Z,101936.55
2023-02-14T11:30:47.803Z,101932.55
2023-02-14T11:33:42.716Z,101926.02
2023-02-14T11:36:15.142Z,101935.98
2023-02-14T11:38:45.366Z,101927.97
2023-02-14T11:41:15.253Z,101922.02
2023-02-14T11:43:45.844Z,101925.27
2023-02-14T11:46:20.743Z,101923.39
2023-02-14T11:48:59.175Z,101925.89
2023-02-14T11:51:33.294Z,101923.77
2023-02-14T11:54:05.090Z,101924.77
2023-02-14T11:56:48.009Z,101919.88
2023-02-14T11:59:23.011Z,101913.58
2023-02-14T12:01:50.294Z,101913.45
2023-02-14T12:04:22.959Z,101911.12
2023-02-14T12:06:50.497Z,101913.93
2023-02-14T12:09:23.381Z,101910.61
2023-02-14T12:12:03.173Z,101906.39
2023-02-14T12:14:32.877Z,101897.19
2023-02-14T12:17:13.282Z,101901.48
2023-02-14T12:20:03.925Z,101900.34
2023-02-14T12:22:39.983Z,101895.96
2023-02-14T12:25:16.738Z,101899.61
2023-02-14T12:27:53.722Z,101891.42
2023-02-14T12:30:24.419Z,101897.29
2023-02-14T12:32:54.312Z,101895.96
2023-02-14T12:35:50.227Z,101889.46
2023-02-14T12:38:46.318Z,101883.13
2023-02-14T12:41:40.799Z,101882.10
2023-02-14T12:44:18.381Z,101883.77
2023-02-14T12:47:03.789Z,101881.42
2023-02-14T12:50:03.278Z,101886.60
2023-02-14T12:52:48.399Z,101886.15
2023-02-14T12:55:34.206Z,101887.08
2023-02-14T12:58:38.361Z,101881.81
2023-02-14T13:01:28.945Z,101877.41
2023-02-14T13:04:29.057Z,101878.88
2023-02-14T13:07:14.023Z,101886.52
2023-02-14T13:09:40.889Z,101884.00
2023-02-14T13:12:36.303Z,101884.02
2023-02-14T13:15:07.022Z,101882.06
2023-02-14T13:17:36.738Z,101885.13
2023-02-14T13:20:13.336Z,101891.52
2023-02-14T13:22:41.332Z,101887.02
2023-02-14T13:25:33.997Z,101892.68
2023-02-14T13:28:05.769Z,101886.02
2023-02-14T13:30:35.258Z,101881.04
2023-02-14T13:33:07.471Z,101879.90
2023-02-14T13:35:35.405Z,101888.08
2023-02-14T13:38:06.905Z,101893.57
2023-02-14T13:40:35.933Z,101898.68
2023-02-14T13:43:03.230Z,101901.67
2023-02-14T13:45:30.544Z,101894.79
2023-02-14T13:48:22.751Z,101897.83
2023-02-14T13:50:54.713Z,101894.58
2023-02-14T13:53:44.937Z,101888.96
2023-02-14T13:56:11.777Z,101892.02
2023-02-14T13:59:00.150Z,101890.79
2023-02-14T14:01:30.206Z,101895.34
2023-02-14T14:04:00.953Z,101893.36
2023-02-14T14:06:28.472Z,101891.86
2023-02-14T14:08:57.227Z,101891.80
2023-02-14T14:11:24.125Z,101894.20
2023-02-14T14:13:51.128Z,101895.01
2023-02-14T14:16:24.051Z,101893.37
2023-02-14T14:18:58.505Z,101895.12
2023-02-14T14:21:26.768Z,101888.95
2023-02-14T14:24:18.242Z,101891.56
2023-02-14T14:26:48.013Z,101894.16
2023-02-14T14:29:32.489Z,101902.66
2023-02-14T14:31:59.477Z,101902.91
2023-02-14T14:34:28.659Z,101900.57
2023-02-14T14:37:04.562Z,101898.39
2023-02-14T14:39:34.624Z,101894.29
2023-02-14T14:42:07.628Z,101898.89
2023-02-14T14:44:36.314Z,101898.96
2023-02-14T14:47:03.980Z,101896.06
2023-02-14T14:49:32.474Z,101903.19
2023-02-14T14:51:59.366Z,101900.40
2023-02-14T14:54:27.779Z,101900.75
2023-02-14T14:56:59.486Z,101900.47
2023-02-14T14:59:35.992Z,101899.67
2023-02-14T15:02:20.390Z,101898.00
2023-02-14T15:04:47.330Z,101900.50
2023-02-14T15:07:35.055Z,101901.27
2023-02-14T15:10:02.296Z,101904.55
2023-02-14T15:12:48.392Z,101905.41
2023-02-14T15:15:18.145Z,101901.96
2023-02-14T15:17:46.188Z,101904.24
2023-02-14T15:20:20.372Z,101903.52
2023-02-14T15:22:49.825Z,101907.14
2023-02-14T15:25:21.510Z,101904.84
2023-02-14T15:27:49.171Z,101907.00
2023-02-14T15:30:19.527Z,101909.70
2023-02-14T15:32:49.671Z,101906.38
2023-02-14T15:35:22.068Z,101908.59
2023-02-14T15:37:50.596Z,101908.23
2023-02-14T15:40:23.571Z,101906.16
2023-02-14T15:42:56.643Z,101904.14
2023-02-14T15:45:30.998Z,101909.10
2023-02-14T15:48:05.621Z,101909.48
2023-02-14T15:50:35.673Z,101912.39
2023-02-14T15:53:07.215Z,101912.64
2023-02-14T15:55:35.898Z,101913.80
2023-02-14T15:58:06.884Z,101916.18
2023-02-14T16:00:35.644Z,101920.97
2023-02-14T16:03:07.387Z,101922.89
2023-02-14T16:05:34.910Z,101925.48
2023-02-14T16:08:03.720Z,101922.38
2023-02-14T16:10:30.668Z,101926.08
2023-02-14T16:13:02.249Z,101930.21
2023-02-14T16:15:32.393Z,101932.55
2023-02-14T16:18:01.230Z,101938.70
2023-02-14T16:20:43.654Z,101944.18
2023-02-14T16:23:29.339Z,101946.23
2023-02-14T16:25:59.117Z,101950.88
2023-02-14T16:28:31.098Z,101950.79
2023-02-14T16:31:01.075Z,101949.11
2023-02-14T16:33:32.076Z,101950.27
2023-02-14T16:36:29.929Z,101951.50
2023-02-14T16:38:57.595Z,101952.56
2023-02-14T16:41:27.702Z,101953.70
2023-02-14T16:43:55.836Z,101956.64
2023-02-14T16:46:27.679Z,101960.08
2023-02-14T16:48:54.814Z,101958.84
2023-02-14T16:51:23.956Z,101959.55
2023-02-14T16:53:51.470Z,101959.46
2023-02-14T16:56:18.322Z,101957.51
2023-02-14T16:58:46.027Z,101957.73
2023-02-14T17:01:13.185Z,101959.08
2023-02-14T17:03:42.685Z,101958.34
2023-02-14T17:06:17.117Z,101961.93
2023-02-14T17:08:45.301Z,101961.64
2023-02-14T17:11:12.182Z,101963.68
2023-02-14T17:13:42.334Z,101966.48
2023-02-14T17:16:11.968Z,101968.48
2023-02-14T17:18:42.298Z,101972.66
2023-02-14T17:21:09.878Z,101975.72
2023-02-14T17:23:36.871Z,101978.71
2023-02-14T17:26:04.090Z,101983.70
2023-02-14T17:28:30.923Z,101982.06
2023-02-14T17:31:00.605Z,101981.27
2023-02-14T17:33:27.721Z,101981.92
2023-02-14T17:35:54.721Z,101981.56
2023-02-14T17:38:22.433Z,101979.27
2023-02-14T17:40:49.413Z,101978.70
2023-02-14T17:43:16.359Z,101980.70
2023-02-14T17:45:43.367Z,101978.45
2023-02-14T17:48:11.820Z,101977.36
2023-02-14T17:50:38.904Z,101974.50
2023-02-14T17:53:05.835Z,101974.47
2023-02-14T17:55:32.864Z,101973.67
2023-02-14T17:57:59.936Z,101971.23
2023-02-14T18:00:26.845Z,101974.20
2023-02-14T18:02:53.729Z,101972.98
2023-02-14T18:05:20.739Z,101977.96
2023-02-14T18:07:47.905Z,101976.52
2023-02-14T18:10:15.299Z,101972.34
2023-02-14T18:12:42.454Z,101968.70
2023-02-14T18:15:10.191Z,101973.21
2023-02-14T18:17:37.200Z,101972.17
2023-02-14T18:20:05.530Z,101969.20
2023-02-14T18:22:32.672Z,101965.73
2023-02-14T18:24:59.618Z,101972.58
2023-02-14T18:27:26.664Z,101971.23
2023-02-14T18:29:53.899Z,101973.94
2023-02-14T18:32:20.968Z,101969.98
2023-02-14T18:34:47.831Z,101970.02
2023-02-14T18:37:14.879Z,101967.73
2023-02-14T18:39:41.879Z,101970.85
2023-02-14T18:42:09.230Z,101972.30
2023-02-14T18:44:36.585Z,101975.19
2023-02-14T18:47:03.683Z,101972.84
2023-02-14T18:49:31.496Z,101974.23
2023-02-14T18:51:59.050Z,101975.61
2023-02-14T18:54:26.258Z,101977.94
2023-02-14T18:56:53.490Z,101978.36
2023-02-14T18:59:20.498Z,101980.59
2023-02-14T19:01:47.600Z,101977.83
2023-02-14T19:04:14.782Z,101976.27
2023-02-14T19:06:42.533Z,101971.89
2023-02-14T19:09:12.239Z,101974.77
2023-02-14T19:11:39.710Z,101973.09
2023-02-14T19:14:10.503Z,101970.96
2023-02-14T19:16:51.261Z,101967.08
2023-02-14T19:19:18.838Z,101970.77
2023-02-14T19:21:46.364Z,101973.64
2023-02-14T19:24:16.813Z,101976.54
2023-02-14T19:26:45.110Z,101973.95
2023-02-14T19:29:15.570Z,101975.85
2023-02-14T19:31:51.357Z,101980.52
2023-02-14T19:34:24.327Z,101981.35
2023-02-14T19:36:52.761Z,101987.98
2023-02-14T19:39:21.596Z,101991.82
2023-02-14T19:41:49.384Z,101993.21
2023-02-14T19:44:17.951Z,101994.76
2023-02-14T19:46:47.598Z,101992.33
2023-02-14T19:49:16.690Z,101994.33
2023-02-14T19:51:44.880Z,101996.75
2023-02-14T19:54:13.083Z,101997.42
2023-02-14T19:56:45.112Z,101995.93
2023-02-14T19:59:20.105Z,102000.14
2023-02-14T20:01:52.975Z,101997.95
2023-02-14T20:04:22.888Z,101996.30
2023-02-14T20:06:50.783Z,101997.80
2023-02-14T20:09:19.339Z,101995.89
2023-02-14T20:11:51.897Z,101998.84
2023-02-14T20:14:21.882Z,102003.97
2023-02-14T20:16:49.200Z,102002.83
2023-02-14T20:19:21.408Z,102002.23
2023-02-14T20:21:50.159Z,102003.98
2023-02-14T20:24:20.804Z,102005.36
2023-02-14T20:26:49.018Z,102001.77
2023-02-14T20:29:16.929Z,101998.10
2023-02-14T20:31:49.649Z,101994.66
2023-02-14T20:34:17.868Z,101993.52
2023-02-14T20:36:49.716Z,101995.33
2023-02-14T20:39:16.646Z,101995.48
2023-02-14T20:41:46.438Z,101994.38
2023-02-14T20:44:15.897Z,101989.16
2023-02-14T20:46:43.044Z,101989.82
2023-02-14T20:49:12.177Z,101988.05
2023-02-14T20:51:39.510Z,101994.31
2023-02-14T20:54:06.724Z,101992.23
2023-02-14T20:56:34.378Z,101994.30
2023-02-14T20:59:04.586Z,101991.08
2023-02-14T21:01:31.596Z,101992.64
2023-02-14T21:03:58.652Z,101993.58
2023-02-14T21:06:28.555Z,101996.44
2023-02-14T21:08:55.660Z,102000.30
2023-02-14T21:11:24.327Z,102001.77
2023-02-14T21:13:55.208Z,102003.45
2023-02-14T21:16:23.077Z,102003.62
2023-02-14T21:19:01.462Z,102005.41
2023-02-14T21:21:36.813Z,102009.48
2023-02-14T21:24:12.283Z,102009.23
2023-02-14T21:26:39.902Z,102005.66
2023-02-14T21:29:07.422Z,102009.66
2023-02-14T21:31:34.474Z,102009.05
2023-02-14T21:34:03.270Z,102009.97
2023-02-14T21:36:33.020Z,102009.94
2023-02-14T21:39:00.336Z,102009.98
2023-02-14T21:41:30.379Z,102008.20
2023-02-14T21:43:59.675Z,102009.83
2023-02-14T21:46:31.065Z,102010.96
2023-02-14T21:49:21.569Z,102006.51
2023-02-14T21:51:48.717Z,102003.06
2023-02-14T21:54:16.912Z,101999.69
2023-02-14T21:56:44.109Z,101998.86
2023-02-14T21:59:11.804Z,101999.21
2023-02-14T22:01:41.293Z,102000.77
2023-02-14T22:04:11.079Z,102001.66
2023-02-14T22:06:40.714Z,101997.02
2023-02-14T22:09:07.835Z,101999.00
2023-02-14T22:11:35.244Z,102004.81
2023-02-14T22:14:02.477Z,102005.02
2023-02-14T22:16:29.525Z,102006.69
2023-02-14T22:18:56.645Z,102008.30
2023-02-14T22:21:25.639Z,102001.73
2023-02-14T22:23:54.112Z,102001.54
2023-02-14T22:26:29.384Z,102000.30
2023-02-14T22:28:59.348Z,102001.45
2023-02-14T22:31:28.713Z,102003.41
2023-02-14T22:33:55.636Z,101999.94
2023-02-14T22:36:22.570Z,102001.72
2023-02-14T22:38:49.544Z,102002.11
2023-02-14T22:41:19.246Z,102002.35
2023-02-14T22:43:46.399Z,102001.64
2023-02-14T22:46:20.188Z,102000.48
2023-02-14T22:48:48.798Z,102001.46
2023-02-14T22:51:30.963Z,102001.83
2023-02-14T22:54:10.205Z,102000.57
2023-02-14T22:56:41.313Z,101999.55
2023-02-14T22:59:31.352Z,101998.92
2023-02-14T23:01:58.553Z,101996.40
2023-02-14T23:04:26.764Z,101995.67
2023-02-14T23:06:54.127Z,101993.75
2023-02-14T23:09:22.457Z,101990.38
2023-02-14T23:11:49.471Z,101988.91
2023-02-14T23:14:37.136Z,101991.69
2023-02-14T23:17:23.775Z,101991.54
2023-02-14T23:20:09.973Z,101994.00
2023-02-14T23:22:39.423Z,101996.02
2023-02-14T23:25:09.804Z,101990.21
2023-02-14T23:27:43.312Z,101989.07
2023-02-14T23:30:16.204Z,101989.99
2023-02-14T23:32:43.470Z,101988.65
2023-02-14T23:35:10.898Z,101989.45
2023-02-14T23:37:38.599Z,101992.27
2023-02-14T23:40:07.002Z,101993.88
2023-02-14T23:42:34.002Z,101991.30
2023-02-14T23:45:21.082Z,101986.50
2023-02-14T23:47:48.074Z,101989.94
2023-02-14T23:50:15.699Z,101992.66
2023-02-14T23:52:44.734Z,101992.72
2023-02-14T23:55:12.714Z,101994.40
2023-02-14T23:57:39.774Z,101994.81
